Time;durP1;ratioP1;P1;durP2;ratioP2;P2;SDS_P1;SDS_P2;PMS_P1;PMS_P2;Temp;Humidity;BMP_temperature;BMP_pressure;BME280_temperature;BME280_humidity;BME280_pressure;Samples;Min_cycle;Max_cycle;Signal;HPM_P1;HPM_P2
2022/07/27 00:00:54;;;;;;;3.22;2.92;;;18.20;99.90;;;19.04;69.11;97885.75;5240364;28;20710;-59
2022/07/27 00:03:27;;;;;;;3.75;3.45;;;18.20;99.90;;;19.11;68.57;97880.75;5225537;28;20221;-58
2022/07/27 00:06:00;;;;;;;3.03;2.50;;;18.30;99.90;;;19.11;68.38;97874.66;5227041;28;20296;-57
2022/07/27 00:08:35;;;;;;;3.45;3.20;;;18.30;99.90;;;19.10;68.67;97875.53;5232056;28;20743;-59
2022/07/27 00:11:09;;;;;;;3.60;3.38;;;18.30;99.90;;;19.15;68.95;97873.91;5231100;28;20249;-59
2022/07/27 00:13:43;;;;;;;3.28;3.03;;;18.40;99.90;;;19.17;68.32;97877.41;5236590;28;20637;-59
2022/07/27 00:16:17;;;;;;;3.67;2.90;;;18.40;99.90;;;19.19;68.88;97872.28;5235198;28;20211;-57
2022/07/27 00:18:50;;;;;;;3.47;3.10;;;18.40;99.90;;;19.10;68.05;97876.38;5232340;28;20201;-59
2022/07/27 00:21:25;;;;;;;2.55;2.35;;;18.30;99.90;;;19.07;68.15;97880.63;5228189;28;20643;-59
2022/07/27 00:23:59;;;;;;;3.92;2.55;;;18.20;99.90;;;19.02;68.39;97864.09;5229260;28;20257;-58
2022/07/27 00:26:33;;;;;;;3.40;2.83;;;18.20;99.90;;;19.01;68.39;97875.31;5233101;28;20262;-59
2022/07/27 00:29:06;;;;;;;3.00;2.75;;;18.20;99.90;;;19.00;68.57;97874.44;5230821;28;20224;-58
2022/07/27 00:31:39;;;;;;;3.00;2.80;;;18.10;99.90;;;18.86;67.55;97870.63;5229388;28;20646;-55
2022/07/27 00:34:12;;;;;;;3.05;2.88;;;17.90;99.90;;;18.77;68.26;97878.16;5227637;28;20205;-59
2022/07/27 00:36:45;;;;;;;3.28;2.70;;;17.90;99.90;;;18.74;69.01;97875.50;5231542;28;20238;-58
2022/07/27 00:39:21;;;;;;;2.97;2.70;;;17.80;99.90;;;18.66;68.44;97885.63;5231321;28;20211;-59
2022/07/27 00:41:54;;;;;;;2.67;2.47;;;17.80;99.90;;;18.64;69.28;97884.72;5232159;28;20251;-58
2022/07/27 00:44:29;;;;;;;3.80;2.92;;;17.80;99.90;;;18.64;70.80;97875.22;5226915;28;20256;-58
2022/07/27 00:47:02;;;;;;;3.95;3.03;;;17.80;99.90;;;18.63;70.83;97870.03;5232942;28;20197;-59
2022/07/27 00:49:35;;;;;;;2.83;2.63;;;17.90;99.90;;;18.65;69.89;97865.75;5229802;28;20740;-58
2022/07/27 00:52:08;;;;;;;3.03;2.80;;;17.90;99.90;;;18.64;69.42;97866.59;5228894;28;20643;-59
2022/07/27 00:54:44;;;;;;;3.00;2.70;;;17.80;99.90;;;18.61;69.95;97863.94;5230471;28;20275;-59
2022/07/27 00:57:17;;;;;;;3.05;2.65;;;17.80;99.90;;;18.55;70.64;97864.66;5233123;28;20614;-59
2022/07/27 00:59:50;;;;;;;3.00;2.70;;;17.70;99.90;;;18.50;70.56;97850.69;5230751;28;20236;-57
2022/07/27 01:02:25;;;;;;;4.10;2.90;;;17.60;99.90;;;18.48;70.81;97859.25;5238044;28;20494;-59
2022/07/27 01:04:58;;;;;;;3.70;3.40;;;17.60;99.90;;;18.49;70.78;97855.84;5231693;28;20224;-59
2022/07/27 01:07:32;;;;;;;3.72;3.42;;;17.60;99.90;;;18.44;71.76;97855.72;5232123;28;20443;-57
2022/07/27 01:10:08;;;;;;;3.83;3.53;;;17.50;99.90;;;18.31;72.75;97846.75;5230460;28;20291;-59
2022/07/27 01:12:44;;;;;;;3.25;3.00;;;17.50;99.90;;;18.32;72.32;97851.09;5227526;28;20283;-59
2022/07/27 01:15:18;;;;;;;3.45;3.10;;;17.40;99.90;;;18.27;73.00;97847.53;5232400;28;20611;-59
2022/07/27 01:17:51;;;;;;;3.13;2.92;;;17.40;99.90;;;18.26;73.07;97850.94;5230347;28;20239;-59
2022/07/27 01:20:24;;;;;;;3.17;2.85;;;17.30;99.90;;;18.18;72.99;97848.16;5231682;28;20205;-59
2022/07/27 01:22:59;;;;;;;3.35;3.05;;;17.30;99.90;;;18.05;73.35;97855.53;5228235;28;20703;-59
2022/07/27 01:25:32;;;;;;;3.67;3.25;;;17.20;99.90;;;17.99;73.33;97844.16;5231935;28;20245;-59
2022/07/27 01:28:05;;;;;;;3.20;3.00;;;17.10;99.90;;;17.95;72.47;97844.94;5229636;28;20645;-58
2022/07/27 01:30:38;;;;;;;3.10;2.90;;;17.00;99.90;;;17.91;74.03;97848.28;5234902;28;20247;-59
2022/07/27 01:33:11;;;;;;;3.03;2.83;;;17.00;99.90;;;17.91;73.79;97842.22;5233063;28;20275;-58
2022/07/27 01:35:45;;;;;;;3.70;3.40;;;17.00;99.90;;;17.85;74.36;97842.91;5233541;28;20201;-59
2022/07/27 01:38:19;;;;;;;3.38;3.05;;;17.00;99.90;;;17.86;73.38;97843.81;5228937;28;20193;-58
2022/07/27 01:40:53;;;;;;;3.38;3.08;;;17.00;99.90;;;17.85;73.99;97837.75;5225942;28;20236;-57
2022/07/27 01:43:26;;;;;;;3.42;3.17;;;17.00;99.90;;;17.82;74.55;97837.66;5227511;28;20247;-59
2022/07/27 01:46:00;;;;;;;3.35;3.13;;;17.00;99.90;;;17.79;74.08;97833.28;5230600;28;20201;-59
2022/07/27 01:48:33;;;;;;;3.30;3.10;;;17.00;99.90;;;17.76;73.80;97832.28;5233505;28;20192;-59
2022/07/27 01:51:06;;;;;;;3.30;3.10;;;17.00;99.90;;;17.68;73.97;97824.31;5232574;28;20201;-59
2022/07/27 01:53:41;;;;;;;3.17;2.95;;;16.90;99.90;;;17.67;74.65;97826.84;5230981;28;20233;-59
2022/07/27 01:56:14;;;;;;;3.08;2.88;;;16.80;99.90;;;17.65;75.13;97831.09;5231564;28;20354;-57
2022/07/27 01:58:47;;;;;;;2.80;2.60;;;16.80;99.90;;;17.65;74.54;97824.22;5231521;28;20224;-57
2022/07/27 02:01:21;;;;;;;3.40;3.20;;;16.80;99.90;;;17.64;75.25;97816.44;5232156;28;20662;-58
2022/07/27 02:03:54;;;;;;;3.67;3.22;;;16.80;99.90;;;17.61;75.39;97809.47;5230930;28;20442;-57
2022/07/27 02:06:27;;;;;;;3.60;3.38;;;16.80;99.90;;;17.60;75.26;97809.41;5232541;28;20295;-58
2022/07/27 02:09:01;;;;;;;3.22;2.92;;;16.80;99.90;;;17.57;73.88;97810.22;5229391;28;20200;-59
2022/07/27 02:14:25;;;;;;;3.00;2.90;;;16.60;99.90;;;17.48;73.69;97808.25;5233233;28;20276;-58
2022/07/27 02:17:00;;;;;;;3.13;2.92;;;16.60;99.90;;;17.42;74.24;97800.28;5230990;28;20929;-57
2022/07/27 02:19:34;;;;;;;3.30;3.10;;;16.60;99.90;;;17.41;74.93;97802.84;5230005;28;20204;-58
2022/07/27 02:22:07;;;;;;;3.17;2.97;;;16.50;99.90;;;17.39;74.06;97810.53;5231434;28;20306;-58
2022/07/27 02:24:41;;;;;;;3.05;2.85;;;16.50;99.90;;;17.37;74.20;97812.22;5230694;28;20206;-58
2022/07/27 02:27:15;;;;;;;3.10;2.88;;;16.50;99.90;;;17.27;74.36;97811.06;5233208;28;20236;-59
2022/07/27 02:29:48;;;;;;;3.30;3.10;;;16.40;99.90;;;17.23;74.43;97814.41;5234033;28;20228;-59
2022/07/27 02:32:21;;;;;;;3.10;2.90;;;16.40;99.90;;;17.25;74.75;97827.34;5232957;28;20287;-59
2022/07/27 02:34:54;;;;;;;3.90;3.30;;;16.40;99.90;;;17.13;74.94;97821.81;5232880;28;20669;-59
2022/07/27 02:37:28;;;;;;;3.50;3.13;;;16.30;99.90;;;17.14;73.84;97826.13;5232148;28;20283;-59
2022/07/27 02:40:02;;;;;;;3.92;3.30;;;16.30;99.90;;;17.09;74.95;97813.97;5230972;28;20312;-59
2022/07/27 02:42:35;;;;;;;3.25;3.05;;;16.20;99.90;;;17.00;75.90;97818.88;5231449;28;20223;-58
2022/07/27 02:45:10;;;;;;;3.42;3.22;;;16.20;99.90;;;16.98;75.38;97822.22;5236251;28;20257;-58
2022/07/27 02:47:43;;;;;;;3.40;3.10;;;16.20;99.90;;;16.97;76.63;97821.34;5227444;28;20223;-58
2022/07/27 02:50:16;;;;;;;3.47;3.17;;;16.20;99.90;;;17.00;77.20;97820.56;5233870;28;20615;-58
2022/07/27 02:52:49;;;;;;;3.45;3.17;;;16.30;99.90;;;17.04;76.62;97827.56;5233444;28;20724;-59
2022/07/27 02:55:24;;;;;;;3.33;3.03;;;16.30;99.90;;;17.00;76.15;97831.78;5229938;28;20246;-59
2022/07/27 02:57:57;;;;;;;3.25;3.05;;;16.30;99.90;;;17.08;75.27;97830.31;5230145;28;20203;-59
2022/07/27 03:00:30;;;;;;;3.58;3.28;;;16.20;99.90;;;17.03;75.51;97831.00;5228138;28;20301;-59
2022/07/27 03:03:03;;;;;;;3.33;3.05;;;16.20;99.90;;;17.01;75.70;97828.34;5232500;28;20329;-58
2022/07/27 03:05:37;;;;;;;3.35;3.05;;;16.20;99.90;;;17.08;75.68;97832.88;5238485;28;20201;-59
2022/07/27 03:08:10;;;;;;;3.55;3.25;;;16.20;99.90;;;17.06;75.72;97838.84;5231579;28;20266;-59
2022/07/27 03:10:44;;;;;;;3.63;3.33;;;16.20;99.90;;;16.97;76.36;97831.69;5230937;28;20225;-59
2022/07/27 03:13:21;;;;;;;3.90;3.38;;;16.20;99.90;;;16.94;76.86;97833.25;5230920;28;20691;-59
2022/07/27 03:15:54;;;;;;;3.85;3.55;;;16.10;99.90;;;16.88;78.39;97840.00;5231889;28;20228;-60
2022/07/27 03:18:27;;;;;;;3.42;3.22;;;16.10;99.90;;;17.00;76.81;97847.25;5231395;28;20808;-57
2022/07/27 03:21:00;;;;;;;3.83;3.50;;;16.20;99.90;;;16.98;76.34;97846.34;5232167;28;20229;-59
2022/07/27 03:23:34;;;;;;;3.72;3.42;;;16.20;99.90;;;16.99;77.65;97842.91;5230189;28;20302;-59
2022/07/27 03:26:08;;;;;;;3.70;3.47;;;16.30;99.90;;;16.98;77.95;97832.56;5236068;28;20192;-58
2022/07/27 03:28:41;;;;;;;3.90;3.60;;;16.30;99.90;;;16.96;76.06;97834.19;5227103;28;20236;-58
2022/07/27 03:31:14;;;;;;;3.70;3.40;;;16.20;99.90;;;16.92;77.26;97838.41;5231589;28;20244;-59
2022/07/27 03:33:48;;;;;;;3.92;3.58;;;16.10;99.90;;;16.84;77.04;97838.13;5233442;28;20198;-59
2022/07/27 03:36:21;;;;;;;3.90;3.67;;;16.10;99.90;;;16.81;77.75;97832.00;5232567;28;20235;-58
2022/07/27 03:38:54;;;;;;;3.60;3.40;;;16.10;99.90;;;16.85;77.42;97831.25;5235253;28;20221;-59
2022/07/27 03:41:29;;;;;;;4.10;3.70;;;16.10;99.90;;;16.82;76.94;97833.75;5226423;28;20731;-58
2022/07/27 03:44:02;;;;;;;3.95;3.72;;;16.00;99.90;;;16.83;77.42;97825.19;5229221;28;20255;-59
2022/07/27 03:46:35;;;;;;;4.05;3.78;;;16.00;99.90;;;16.87;78.36;97824.47;5230574;28;20197;-58
2022/07/27 03:49:08;;;;;;;3.85;3.45;;;16.20;99.90;;;16.90;78.20;97834.88;5236123;28;20228;-56
2022/07/27 03:51:47;;;;;;;3.53;3.25;;;16.20;99.90;;;16.95;77.88;97828.16;5231641;28;20815;-59
2022/07/27 03:54:20;;;;;;;4.40;3.33;;;16.20;99.90;;;17.06;76.92;97831.97;5233477;28;20220;-58
2022/07/27 03:56:54;;;;;;;3.58;3.38;;;16.30;99.90;;;17.08;76.71;97819.97;5230179;28;20315;-58
2022/07/27 03:59:27;;;;;;;3.63;3.42;;;16.20;99.90;;;17.09;76.44;97819.13;5240511;28;20235;-58
2022/07/27 04:02:00;;;;;;;3.22;3.00;;;16.30;99.90;;;17.11;76.32;97825.22;5234596;28;20260;-59
2022/07/27 04:04:34;;;;;;;3.08;2.88;;;16.30;99.90;;;17.14;76.13;97814.13;5232304;28;20783;-59
2022/07/27 04:07:07;;;;;;;3.83;3.42;;;16.30;99.90;;;17.07;75.51;97812.16;5234463;28;20277;-59
2022/07/27 04:09:40;;;;;;;3.75;3.28;;;16.20;99.90;;;17.01;75.42;97817.16;5229333;28;20276;-59
2022/07/27 04:12:17;;;;;;;3.70;3.42;;;16.20;99.90;;;16.93;75.90;97814.31;5231644;28;20307;-60
2022/07/27 04:14:52;;;;;;;3.58;3.38;;;16.10;99.90;;;16.99;76.51;97816.22;5229446;28;20193;-60
2022/07/27 04:17:25;;;;;;;3.85;3.55;;;16.20;99.90;;;17.03;76.70;97820.66;5231392;28;20228;-59
2022/07/27 04:20:18;;;;;;;4.20;3.90;;;16.30;99.90;;;17.06;77.16;97815.59;5230568;28;20209;-59
2022/07/27 04:22:52;;;;;;;4.43;4.07;;;16.30;99.90;;;17.15;76.28;97815.00;5227524;28;20694;-59
2022/07/27 04:25:25;;;;;;;4.32;4.00;;;16.40;99.90;;;17.15;76.28;97821.03;5227627;28;20320;-59
2022/07/27 04:27:59;;;;;;;4.50;4.10;;;16.40;99.90;;;17.13;76.03;97822.69;5227133;28;20282;-58
2022/07/27 04:30:33;;;;;;;4.93;4.50;;;16.30;99.90;;;17.19;77.25;97828.03;5228177;28;20940;-54
2022/07/27 04:33:06;;;;;;;4.43;4.18;;;16.50;99.90;;;17.22;77.20;97829.84;5232272;28;20220;-54
2022/07/27 04:35:39;;;;;;;5.22;4.72;;;16.60;99.90;;;17.27;76.41;97831.72;5228676;28;20239;-57
2022/07/27 04:38:12;;;;;;;3.70;3.50;;;16.50;99.90;;;17.20;76.09;97839.25;5231179;28;20262;-57
2022/07/27 04:40:45;;;;;;;4.20;3.90;;;16.40;99.90;;;17.23;77.08;97841.94;5231693;28;20209;-57
2022/07/27 04:43:20;;;;;;;3.90;3.60;;;16.40;99.90;;;17.24;77.11;97856.59;5229108;28;20264;-56
2022/07/27 04:45:53;;;;;;;3.97;3.67;;;16.50;99.90;;;17.37;76.20;97858.75;5229288;28;20227;-58
2022/07/27 04:48:26;;;;;;;4.30;3.90;;;16.60;99.90;;;17.42;76.59;97864.91;5231320;28;20613;-57
2022/07/27 04:51:00;;;;;;;3.70;3.50;;;16.70;99.90;;;17.51;76.45;97867.78;5231222;28;20721;-56
2022/07/27 04:53:34;;;;;;;4.50;4.20;;;16.80;99.90;;;17.55;74.88;97871.31;5229402;28;20196;-57
2022/07/27 04:56:08;;;;;;;3.72;3.42;;;16.80;99.90;;;17.59;76.09;97880.03;5227419;28;20188;-56
2022/07/27 04:58:43;;;;;;;4.15;3.83;;;16.80;99.90;;;17.54;75.62;97883.38;5228390;28;20258;-53
2022/07/27 05:01:16;;;;;;;4.00;3.70;;;16.80;99.90;;;17.66;74.74;97879.41;5225629;28;20220;-54
2022/07/27 05:03:49;;;;;;;3.83;3.53;;;16.80;99.90;;;17.76;75.05;97886.59;5226547;28;20275;-57
2022/07/27 05:06:22;;;;;;;4.22;3.92;;;16.90;99.90;;;17.87;74.31;97887.81;5229612;28;20568;-56
2022/07/27 05:08:56;;;;;;;4.30;3.90;;;17.10;99.90;;;17.94;74.13;97884.56;5236171;28;20232;-56
2022/07/27 05:11:29;;;;;;;4.50;4.20;;;17.10;99.90;;;18.06;73.89;97883.16;5231873;28;20282;-56
2022/07/27 05:14:03;;;;;;;5.00;4.60;;;17.10;99.90;;;18.11;74.06;97881.56;5230501;28;20209;-56
2022/07/27 05:16:39;;;;;;;5.00;4.55;;;17.10;99.90;;;18.09;74.47;97888.44;5228496;28;20232;-56
2022/07/27 05:19:12;;;;;;;4.70;4.20;;;17.20;99.90;;;18.09;74.32;97878.09;5225955;28;20196;-58
2022/07/27 05:21:46;;;;;;;4.55;4.15;;;17.20;99.90;;;18.12;74.16;97886.78;5225859;28;20225;-56
2022/07/27 05:24:19;;;;;;;4.43;4.13;;;17.30;99.90;;;18.23;73.71;97887.09;5231893;28;20259;-57
2022/07/27 05:26:52;;;;;;;4.68;4.30;;;17.30;99.90;;;18.32;73.85;97882.16;5229584;28;20203;-54
2022/07/27 05:29:27;;;;;;;4.20;3.90;;;17.30;99.90;;;18.38;72.79;97879.72;5232039;28;20822;-51
2022/07/27 05:32:00;;;;;;;4.07;3.78;;;17.40;99.90;;;18.43;72.37;97882.47;5225665;28;20727;-55
2022/07/27 05:34:33;;;;;;;4.72;4.32;;;17.50;99.90;;;18.54;71.81;97891.38;5231118;28;20225;-54
2022/07/27 05:37:06;;;;;;;3.92;3.67;;;17.50;99.90;;;18.68;71.61;97892.63;5228259;28;20303;-54
2022/07/27 05:39:41;;;;;;;5.82;3.97;;;17.70;99.90;;;18.87;70.58;97893.97;5229140;28;20251;-54
2022/07/27 05:42:14;;;;;;;4.38;3.95;;;17.90;99.90;;;19.04;69.78;97888.34;5229316;28;20339;-51
2022/07/27 05:44:48;;;;;;;3.97;3.58;;;18.00;99.90;;;19.08;69.65;97892.75;5227132;28;20270;-55
2022/07/27 05:47:22;;;;;;;3.72;3.42;;;18.00;99.90;;;19.07;69.84;97888.41;5228455;28;20200;-53
2022/07/27 05:49:55;;;;;;;3.70;3.40;;;18.00;99.90;;;19.02;70.07;97883.09;5229550;28;20629;-52
2022/07/27 05:52:28;;;;;;;3.85;3.58;;;18.00;99.90;;;19.11;70.29;97883.34;5233406;28;20839;-52
2022/07/27 05:55:01;;;;;;;3.97;3.60;;;18.10;99.90;;;19.15;70.03;97893.78;5229048;28;20232;-55
2022/07/27 05:57:34;;;;;;;4.10;3.72;;;18.20;99.90;;;19.10;69.70;97891.06;5229873;28;20661;-54
2022/07/27 06:00:11;;;;;;;4.15;3.85;;;18.10;99.90;;;19.18;70.09;97889.53;5228374;28;20201;-55
2022/07/27 06:02:44;;;;;;;3.75;3.45;;;18.10;99.90;;;19.22;69.92;97891.34;5231399;28;20255;-56
2022/07/27 06:05:17;;;;;;;4.13;3.75;;;18.20;99.90;;;19.34;69.46;97896.84;5232599;28;20248;-54
2022/07/27 06:07:59;;;;;;;4.05;3.80;;;18.30;99.90;;;19.46;68.57;97895.34;5231840;28;20202;-56
2022/07/27 06:10:35;;;;;;;4.30;4.00;;;18.40;99.90;;;19.48;69.12;97893.66;5230598;28;20197;-54
2022/07/27 06:13:11;;;;;;;4.90;4.03;;;18.50;99.90;;;19.58;68.45;97895.63;5229814;28;20250;-53
2022/07/27 06:15:45;;;;;;;4.03;3.47;;;18.50;99.90;;;19.62;68.44;97897.44;5229403;28;20196;-54
2022/07/27 06:18:18;;;;;;;4.18;3.50;;;18.60;99.90;;;19.68;67.69;97907.09;5226520;28;20228;-56
2022/07/27 06:20:51;;;;;;;3.83;3.50;;;18.60;99.90;;;19.99;67.25;97903.44;5230571;28;20703;-55
2022/07/27 06:23:25;;;;;;;4.50;4.10;;;18.90;99.90;;;20.27;66.14;97906.59;5231140;28;20595;-55
2022/07/27 06:25:58;;;;;;;4.40;4.10;;;19.20;99.90;;;20.57;64.55;97909.78;5225255;28;20271;-54
2022/07/27 06:28:31;;;;;;;4.53;3.70;;;19.40;99.90;;;20.97;63.90;97907.88;5225728;28;20276;-56
2022/07/27 06:31:06;;;;;;;3.95;3.75;;;19.70;99.90;;;21.13;61.96;97907.31;5232071;28;20205;-56
2022/07/27 06:33:42;;;;;;;5.03;3.70;;;19.80;99.90;;;21.22;61.92;97909.16;5234622;28;20197;-54
2022/07/27 06:36:18;;;;;;;4.25;3.90;;;19.90;99.90;;;21.42;61.67;97906.03;5228655;28;20208;-54
2022/07/27 06:38:51;;;;;;;4.20;3.88;;;20.10;99.90;;;21.57;61.26;97899.31;5240983;28;20251;-56
2022/07/27 06:41:24;;;;;;;4.50;4.10;;;20.30;99.90;;;21.70;60.28;97904.72;5242384;28;20260;-56
2022/07/27 06:43:57;;;;;;;4.72;4.20;;;20.50;99.90;;;21.90;59.66;97898.03;5237355;28;20231;-54
2022/07/27 06:46:31;;;;;;;5.53;4.00;;;20.60;99.90;;;22.07;59.73;97897.38;5236002;28;20218;-56
2022/07/27 06:49:05;;;;;;;5.78;3.95;;;20.70;99.90;;;22.16;59.52;97887.06;5235782;28;20285;-58
2022/07/27 06:51:39;;;;;;;4.57;4.05;;;20.80;99.90;;;22.65;59.21;97892.84;5243983;28;20222;-59
2022/07/27 06:54:12;;;;;;;3.90;3.60;;;21.40;99.90;;;23.10;56.98;97888.94;5236305;28;20205;-58
2022/07/27 06:56:45;;;;;;;4.45;4.05;;;21.80;98.60;;;23.32;56.46;97890.84;5233053;28;20225;-58
2022/07/27 06:59:18;;;;;;;3.97;3.60;;;22.10;98.30;;;23.73;54.11;97890.25;5237776;28;20235;-59
2022/07/27 07:01:53;;;;;;;5.05;4.20;;;22.20;96.90;;;23.88;53.32;97891.19;5232113;28;20240;-59
2022/07/27 07:04:26;;;;;;;4.25;3.95;;;22.30;96.50;;;24.18;53.28;97899.16;5236391;28;20649;-58
2022/07/27 07:07:00;;;;;;;4.25;3.88;;;22.60;96.60;;;24.52;51.92;97894.03;5234163;28;20213;-58
2022/07/27 07:09:39;;;;;;;3.92;3.58;;;23.00;95.60;;;25.17;50.36;97895.00;5232364;28;20216;-58
2022/07/27 07:12:12;;;;;;;4.63;3.80;;;23.60;94.10;;;25.75;48.23;97897.53;5227783;28;20245;-58
2022/07/27 07:14:46;;;;;;;4.45;4.15;;;24.00;93.20;;;26.41;46.87;97892.06;5231754;28;20224;-57
2022/07/27 07:17:20;;;;;;;3.97;3.65;;;24.50;92.10;;;26.93;45.47;97896.13;5230131;28;20695;-58
2022/07/27 07:19:53;;;;;;;4.72;3.58;;;25.10;91.00;;;27.16;44.85;97896.84;5232809;28;20656;-58
2022/07/27 07:22:26;;;;;;;4.32;4.00;;;25.10;90.90;;;26.78;45.30;97899.72;5230990;28;20378;-59
2022/07/27 07:24:59;;;;;;;4.18;3.88;;;24.70;91.20;;;26.65;45.78;97895.44;5232022;28;20695;-58
2022/07/27 07:27:35;;;;;;;4.22;3.67;;;24.70;91.30;;;26.85;45.34;97888.31;5233283;28;20290;-59
2022/07/27 07:30:09;;;;;;;4.55;3.67;;;24.70;91.30;;;27.27;44.74;97894.13;5232149;28;20225;-58
2022/07/27 07:32:44;;;;;;;4.60;3.88;;;25.20;90.20;;;27.50;43.89;97886.03;5230778;28;20257;-57
2022/07/27 07:35:17;;;;;;;6.20;3.90;;;25.60;89.20;;;28.06;42.32;97891.56;5233727;28;20243;-60
2022/07/27 07:37:51;;;;;;;4.20;3.90;;;26.00;87.30;;;27.62;42.40;97879.78;5238630;28;20246;-60
2022/07/27 07:40:24;;;;;;;4.50;4.10;;;25.70;86.70;;;27.17;43.09;97888.06;5232303;28;20197;-58
2022/07/27 07:43:15;;;;;;;4.50;4.13;;;25.10;88.00;;;27.12;43.59;97889.81;5233766;28;20234;-59
2022/07/27 07:45:48;;;;;;;4.50;4.20;;;25.00;88.70;;;27.09;43.19;97883.75;5235847;28;20216;-58
2022/07/27 07:48:25;;;;;;;3.65;3.35;;;25.00;87.60;;;26.56;44.34;97883.28;5228680;28;20208;-59
2022/07/27 07:50:58;;;;;;;4.95;4.45;;;24.70;89.20;;;26.66;44.59;97884.94;5235291;28;20204;-58
2022/07/27 07:53:31;;;;;;;4.25;3.95;;;24.60;90.20;;;26.26;45.52;97879.03;5232470;28;20675;-58
2022/07/27 07:56:09;;;;;;;5.78;4.10;;;24.50;90.10;;;26.38;45.49;97884.19;5234735;28;20208;-57
2022/07/27 07:58:43;;;;;;;4.82;4.38;;;24.50;90.50;;;26.37;45.67;97874.59;5229989;28;20204;-57
2022/07/27 08:01:16;;;;;;;4.85;4.45;;;24.40;90.40;;;26.19;45.38;97872.09;5233932;28;20575;-61
2022/07/27 08:03:51;;;;;;;4.43;4.10;;;24.20;90.50;;;26.48;45.57;97883.28;5227293;28;20216;-62
2022/07/27 08:06:24;;;;;;;5.05;4.30;;;24.40;90.70;;;26.22;45.42;97877.31;5236170;28;20220;-62
2022/07/27 08:08:57;;;;;;;4.80;4.45;;;24.20;90.20;;;26.37;45.63;97871.13;5229858;28;20201;-62
2022/07/27 08:11:30;;;;;;;5.05;4.65;;;24.50;90.50;;;26.11;45.94;97881.72;5227615;28;20673;-62
2022/07/27 08:14:03;;;;;;;4.85;4.35;;;24.30;90.10;;;26.21;46.04;97880.78;5228782;28;20193;-62
2022/07/27 08:16:36;;;;;;;4.70;4.30;;;24.30;90.30;;;26.42;45.31;97885.94;5227155;28;20232;-62
2022/07/27 08:19:11;;;;;;;4.63;4.28;;;24.40;90.20;;;26.32;45.09;97881.59;5230857;28;20200;-62
2022/07/27 08:21:45;;;;;;;4.25;3.95;;;24.50;89.70;;;26.46;45.18;97882.41;5230963;28;20226;-62
2022/07/27 08:24:18;;;;;;;4.85;4.50;;;24.50;90.00;;;26.52;44.72;97887.63;5226789;28;20262;-62
2022/07/27 08:26:51;;;;;;;4.80;4.40;;;24.60;89.10;;;26.43;45.61;97882.41;5230641;28;20247;-62
2022/07/27 08:29:24;;;;;;;5.70;4.43;;;24.80;89.80;;;26.37;45.28;97882.47;5237021;28;20217;-62
2022/07/27 08:32:09;;;;;;;4.70;4.40;;;24.60;89.50;;;26.09;45.19;97886.09;5226863;28;20232;-62
2022/07/27 08:34:43;;;;;;;5.07;4.57;;;24.50;89.20;;;26.05;46.00;97891.34;5228505;28;20196;-62
2022/07/27 08:37:17;;;;;;;5.10;4.70;;;24.30;90.30;;;26.19;45.96;97882.56;5230524;28;20672;-61
2022/07/27 08:39:51;;;;;;;4.80;4.50;;;24.50;90.10;;;26.14;46.41;97890.44;5228545;28;20219;-61
2022/07/27 08:42:44;;;;;;;5.10;4.65;;;24.50;90.20;;;26.21;45.82;97884.31;5229928;28;20223;-62
2022/07/27 08:45:23;;;;;;;5.00;4.60;;;24.60;89.70;;;26.09;46.36;97886.09;5229289;28;20227;-62
2022/07/27 08:47:57;;;;;;;4.55;4.15;;;24.50;90.00;;;26.27;45.81;97886.03;5230174;28;20637;-62
2022/07/27 08:50:33;;;;;;;4.70;4.28;;;24.50;90.00;;;26.10;46.75;97883.47;5228932;28;20285;-61
2022/07/27 08:53:10;;;;;;;5.15;4.75;;;24.40;90.40;;;26.01;46.51;97883.50;5233639;28;20597;-62
2022/07/27 08:55:47;;;;;;;4.80;4.40;;;24.30;90.40;;;26.03;47.13;97887.84;5226513;28;20459;-62
2022/07/27 08:58:20;;;;;;;5.45;5.05;;;24.40;90.30;;;26.12;46.29;97881.72;5232262;28;20200;-61
2022/07/27 09:00:53;;;;;;;4.97;4.57;;;24.50;90.00;;;26.42;45.84;97888.56;5229666;28;20292;-62
2022/07/27 09:03:27;;;;;;;5.15;4.65;;;24.80;90.00;;;26.66;45.62;97884.06;5226344;28;20251;-61
2022/07/27 09:06:02;;;;;;;5.05;4.57;;;25.20;88.90;;;26.73;44.70;97885.78;5229818;28;20200;-62
2022/07/27 09:08:37;;;;;;;4.78;4.38;;;25.20;88.10;;;26.96;45.07;97881.22;5230243;28;20196;-62
2022/07/27 09:11:15;;;;;;;4.45;4.13;;;25.40;88.90;;;27.15;44.70;97888.94;5232298;28;20203;-62
2022/07/27 09:13:48;;;;;;;4.22;3.88;;;25.60;88.20;;;27.26;44.50;97892.38;5236480;28;20196;-62
2022/07/27 09:16:30;;;;;;;4.80;4.40;;;25.70;87.50;;;27.32;44.30;97880.94;5230550;28;20579;-60
2022/07/27 09:19:23;;;;;;;4.72;4.18;;;25.60;88.00;;;27.25;43.93;97880.16;5228715;28;20218;-61
2022/07/27 09:21:58;;;;;;;6.03;4.40;;;25.70;86.90;;;27.09;44.76;97879.34;5228145;28;20575;-62
2022/07/27 09:24:31;;;;;;;4.78;4.47;;;25.50;88.00;;;27.10;44.38;97877.59;5228884;28;20219;-62
2022/07/27 09:27:30;;;;;;;5.65;4.35;;;25.50;87.40;;;27.03;44.52;97868.06;5234937;28;20258;-61
2022/07/27 09:30:06;;;;;;;4.95;4.55;;;25.40;87.90;;;27.14;44.06;97881.97;5229642;28;20203;-62
2022/07/27 09:32:50;;;;;;;4.80;4.40;;;25.60;86.80;;;26.95;44.32;97876.84;5227838;28;20251;-62
2022/07/27 09:35:28;;;;;;;5.95;4.80;;;25.50;86.60;;;26.84;44.54;97883.06;5237156;28;20207;-60
2022/07/27 09:41:01;;;;;;;4.70;4.40;;;25.40;86.80;;;26.84;44.07;97883.97;5257683;27;20641;-62
2022/07/27 09:43:47;;;;;;;4.70;4.30;;;25.50;85.60;;;26.89;44.29;97887.38;5240259;28;20554;-62
2022/07/27 09:46:43;;;;;;;4.90;4.50;;;25.50;86.80;;;27.05;44.11;97887.28;5233356;28;20223;-58
2022/07/27 09:49:30;;;;;;;5.25;4.68;;;25.60;86.40;;;27.15;44.34;97875.81;5234678;28;20242;-61
2022/07/27 09:52:04;;;;;;;4.82;4.43;;;25.70;86.50;;;27.16;44.32;97886.34;5231991;28;20273;-61
2022/07/27 09:54:43;;;;;;;4.78;4.45;;;25.70;86.60;;;27.29;43.07;97880.97;5237194;28;20191;-62
2022/07/27 09:57:18;;;;;;;4.53;4.22;;;25.90;84.40;;;27.25;43.83;97874.91;5236814;28;20199;-62
2022/07/27 10:00:09;;;;;;;5.15;4.75;;;26.00;85.40;;;27.27;43.93;97873.13;5239410;28;20374;-62
2022/07/27 10:02:44;;;;;;;4.53;4.22;;;26.10;84.90;;;27.50;43.79;97866.75;5233991;28;20314;-59
2022/07/27 10:05:20;;;;;;;4.30;3.85;;;26.40;85.20;;;27.75;43.07;97876.13;5240167;28;20610;-61
2022/07/27 10:07:55;;;;;;;4.43;4.07;;;26.70;83.00;;;27.87;42.06;97880.38;5243891;28;20204;-62
2022/07/27 10:10:28;;;;;;;4.30;4.00;;;26.90;81.70;;;27.79;40.75;97872.63;5234061;28;20254;-61
2022/07/27 10:13:03;;;;;;;4.60;4.15;;;26.70;80.70;;;27.84;41.72;97878.69;5233935;28;20622;-61
2022/07/27 10:15:40;;;;;;;5.15;4.40;;;26.70;81.80;;;27.84;41.25;97881.31;5239214;28;20235;-62
2022/07/27 10:18:21;;;;;;;4.53;4.10;;;26.60;80.60;;;27.75;41.63;97876.13;5231633;28;20196;-58
2022/07/27 10:21:04;;;;;;;4.32;3.92;;;26.60;81.20;;;27.92;41.46;97888.22;5232657;28;20220;-61
2022/07/27 10:23:38;;;;;;;4.38;4.07;;;26.70;80.40;;;28.02;41.46;97876.72;5232548;28;20200;-62
2022/07/27 10:26:27;;;;;;;5.18;4.13;;;26.60;80.90;;;28.16;40.57;97873.91;5235571;28;20669;-62
2022/07/27 10:29:04;;;;;;;4.22;3.92;;;26.90;80.20;;;28.11;40.42;97889.75;5239702;28;20718;-62
2022/07/27 10:31:39;;;;;;;4.53;4.10;;;26.70;79.60;;;27.35;41.61;97887.03;5240057;28;20302;-62
2022/07/27 10:34:13;;;;;;;4.68;4.18;;;26.20;81.30;;;27.44;41.93;97890.47;5241127;28;20647;-61
2022/07/27 10:36:50;;;;;;;4.57;4.28;;;26.20;81.90;;;27.46;41.99;97893.94;5229949;28;20237;-61
2022/07/27 10:39:36;;;;;;;4.45;4.07;;;26.20;82.00;;;27.10;43.12;97895.97;5240645;28;20276;-61
2022/07/27 10:42:23;;;;;;;4.20;3.90;;;25.80;83.00;;;26.98;41.94;97885.59;5238994;28;20251;-62
2022/07/27 10:45:01;;;;;;;4.38;4.18;;;25.80;81.20;;;26.69;42.76;97890.16;5238553;28;20203;-62
2022/07/27 10:47:42;;;;;;;5.07;4.68;;;25.50;82.50;;;26.64;43.46;97885.81;5238057;28;20250;-62
2022/07/27 10:50:36;;;;;;;4.82;4.43;;;25.40;83.50;;;26.86;43.10;97887.41;5236982;28;20250;-62
2022/07/27 10:53:14;;;;;;;4.93;4.53;;;25.60;83.10;;;26.68;43.50;97887.56;5229748;28;20405;-62
2022/07/27 10:55:52;;;;;;;5.30;4.25;;;25.60;83.10;;;26.84;43.37;97888.31;5224708;28;20208;-62
2022/07/27 10:58:49;;;;;;;4.53;4.20;;;25.70;83.00;;;27.08;42.98;97884.63;5226581;28;20247;-61